Time;durP1;ratioP1;P1;durP2;ratioP2;P2;SDS_P1;SDS_P2;PMS_P1;PMS_P2;Temp;Humidity;BMP_temperature;BMP_pressure;BME280_temperature;BME280_humidity;BME280_pressure;Samples;Min_cycle;Max_cycle;Signal;HPM_P1;HPM_P2
2022/07/11 00:00:08;;;;;;;1.10;0.73;;;22.50;60.70;;;;;;5028863;28;20050;-62
2022/07/11 00:02:34;;;;;;;1.45;1.00;;;22.50;60.70;;;;;;5028908;28;20037;-62
2022/07/11 00:05:01;;;;;;;1.80;0.90;;;22.40;60.70;;;;;;5028786;28;20116;-62
2022/07/11 00:07:27;;;;;;;1.55;0.80;;;22.40;60.70;;;;;;5028287;28;20127;-61
2022/07/11 00:09:53;;;;;;;1.20;1.10;;;22.50;60.70;;;;;;5028337;28;20042;-61
2022/07/11 00:12:21;;;;;;;1.15;0.90;;;22.40;60.60;;;;;;5029339;28;20037;-61
2022/07/11 00:14:47;;;;;;;1.77;1.00;;;22.40;60.60;;;;;;5028700;28;20036;-61
2022/07/11 00:17:13;;;;;;;1.75;1.02;;;22.40;60.70;;;;;;5010871;28;20110;-63
2022/07/11 00:19:38;;;;;;;0.80;0.80;;;22.40;60.60;;;;;;5008372;28;20465;-61
2022/07/11 00:22:05;;;;;;;2.40;1.35;;;22.40;60.60;;;;;;5027285;28;20037;-62
2022/07/11 00:24:31;;;;;;;1.27;0.80;;;22.40;60.70;;;;;;5026789;28;20174;-61
2022/07/11 00:26:56;;;;;;;1.85;1.00;;;22.40;60.70;;;;;;5031717;28;20123;-63
2022/07/11 00:29:22;;;;;;;1.08;0.80;;;22.40;60.70;;;;;;5028038;28;20290;-61
2022/07/11 00:31:47;;;;;;;0.82;0.80;;;22.40;60.70;;;;;;5029592;28;20029;-61
2022/07/11 00:34:14;;;;;;;1.02;0.90;;;22.40;60.70;;;;;;5029851;28;20095;-61
2022/07/11 00:36:40;;;;;;;0.82;0.80;;;22.40;60.80;;;;;;5026560;28;20529;-61
2022/07/11 00:39:06;;;;;;;1.35;0.80;;;22.40;60.80;;;;;;5026593;28;20026;-61
2022/07/11 00:41:32;;;;;;;1.60;0.85;;;22.40;60.80;;;;;;5028168;28;20124;-61
2022/07/11 00:43:59;;;;;;;1.58;0.95;;;22.40;60.80;;;;;;5029042;28;20039;-62
2022/07/11 00:46:26;;;;;;;1.27;0.80;;;22.40;60.80;;;;;;5025957;28;20037;-60
2022/07/11 00:48:52;;;;;;;1.83;0.80;;;22.40;60.80;;;;;;5029361;28;20041;-61
2022/07/11 00:51:21;;;;;;;1.08;0.80;;;22.40;60.80;;;;;;4989666;28;20940;-61
2022/07/11 00:53:53;;;;;;;2.08;1.00;;;22.40;60.90;;;;;;5026190;28;20132;-61
2022/07/11 00:56:20;;;;;;;1.60;0.80;;;22.40;60.90;;;;;;5026497;28;20041;-60
2022/07/11 00:58:48;;;;;;;1.13;0.80;;;22.40;60.90;;;;;;5030400;28;20146;-62
2022/07/11 01:01:14;;;;;;;1.85;1.05;;;22.40;60.80;;;;;;5022235;28;20049;-61
2022/07/11 01:03:39;;;;;;;1.30;0.90;;;22.40;60.90;;;;;;5026694;28;20379;-62
2022/07/11 01:06:07;;;;;;;2.05;0.98;;;22.40;60.90;;;;;;5024178;28;20044;-62
2022/07/11 01:08:37;;;;;;;2.47;0.93;;;22.40;61.60;;;;;;5007448;28;20040;-61
2022/07/11 01:11:04;;;;;;;2.00;0.80;;;22.40;60.90;;;;;;5027032;28;20040;-61
2022/07/11 01:13:31;;;;;;;1.17;0.70;;;22.40;60.90;;;;;;5027979;28;20120;-61
2022/07/11 01:16:10;;;;;;;0.95;0.88;;;22.40;60.90;;;;;;5023279;28;20026;-61
2022/07/11 01:18:36;;;;;;;2.08;0.73;;;22.40;60.90;;;;;;5028305;28;20548;-61
2022/07/11 01:21:10;;;;;;;1.33;0.90;;;22.40;60.90;;;;;;5006847;28;20041;-61
2022/07/11 01:23:35;;;;;;;1.48;0.95;;;22.40;60.90;;;;;;5027843;28;20041;-62
2022/07/11 01:26:01;;;;;;;1.20;0.82;;;22.40;60.90;;;;;;5025631;28;20508;-61
2022/07/11 01:28:27;;;;;;;1.30;0.90;;;22.40;60.90;;;;;;5025037;28;20040;-61
2022/07/11 01:30:53;;;;;;;1.52;1.10;;;22.40;60.90;;;;;;5027433;28;20045;-61
2022/07/11 01:33:18;;;;;;;0.80;0.60;;;22.40;60.90;;;;;;5029416;28;20465;-61
2022/07/11 01:35:44;;;;;;;3.03;1.00;;;22.40;60.90;;;;;;5027974;28;20151;-63
2022/07/11 01:38:09;;;;;;;1.02;0.70;;;22.30;60.90;;;;;;5008417;28;20776;-62
2022/07/11 01:40:35;;;;;;;1.92;0.85;;;22.40;60.90;;;;;;5003662;28;20040;-61
2022/07/11 01:43:01;;;;;;;1.10;0.77;;;22.40;60.90;;;;;;5027581;28;20146;-61
2022/07/11 01:45:26;;;;;;;1.05;0.80;;;22.40;60.90;;;;;;5027405;28;20485;-60
2022/07/11 01:47:52;;;;;;;1.55;0.98;;;22.40;60.90;;;;;;5027603;28;21623;-62
2022/07/11 01:50:18;;;;;;;1.85;0.75;;;22.40;60.90;;;;;;5027246;28;20052;-63
2022/07/11 01:52:43;;;;;;;1.20;0.95;;;22.40;60.90;;;;;;5026547;28;20716;-62
2022/07/11 01:55:11;;;;;;;0.88;0.88;;;22.40;61.10;;;;;;5025653;28;20048;-61
2022/07/11 01:57:36;;;;;;;1.50;0.90;;;22.40;60.90;;;;;;5033015;28;20049;-61
2022/07/11 02:00:03;;;;;;;0.88;0.70;;;22.40;60.90;;;;;;5030922;28;20788;-62
2022/07/11 02:02:29;;;;;;;1.20;0.88;;;22.40;60.90;;;;;;5009218;28;20049;-60
2022/07/11 02:04:55;;;;;;;1.00;0.82;;;22.40;60.90;;;;;;5031915;28;20056;-62
2022/07/11 02:08:11;;;;;;;1.05;0.77;;;22.40;60.90;;;;;;5030191;28;20084;-61
2022/07/11 02:10:06;;;;;;;1.30;0.85;;;22.30;60.80;;;;;;5029895;28;20140;-61
2022/07/11 02:12:32;;;;;;;1.50;0.85;;;22.40;60.90;;;;;;5032882;28;20498;-63
2022/07/11 02:14:58;;;;;;;1.08;0.90;;;22.40;60.80;;;;;;5010837;28;20034;-61
2022/07/11 02:17:24;;;;;;;1.58;1.00;;;22.40;60.80;;;;;;5031088;28;20099;-61
2022/07/11 02:19:50;;;;;;;3.35;0.90;;;22.40;60.80;;;;;;5013119;28;20064;-60
2022/07/11 02:22:15;;;;;;;1.98;1.00;;;22.40;60.80;;;;;;5028167;28;20048;-61
2022/07/11 02:24:41;;;;;;;1.58;1.00;;;22.40;60.80;;;;;;5012434;28;20046;-61
2022/07/11 02:27:06;;;;;;;0.88;0.82;;;22.30;60.80;;;;;;5030037;28;20068;-61
2022/07/11 02:29:32;;;;;;;2.15;0.90;;;22.40;60.80;;;;;;5012357;28;20768;-60
2022/07/11 02:31:59;;;;;;;0.75;0.73;;;22.40;60.80;;;;;;5029916;28;20055;-62
2022/07/11 02:34:24;;;;;;;1.83;0.95;;;22.30;60.70;;;;;;5012245;28;20060;-61
2022/07/11 02:36:50;;;;;;;1.55;0.95;;;22.30;60.80;;;;;;5030013;28;20036;-62
2022/07/11 02:39:16;;;;;;;2.08;0.80;;;22.30;60.70;;;;;;5031355;28;20356;-61
2022/07/11 02:41:42;;;;;;;1.33;0.80;;;22.30;60.70;;;;;;5031713;28;20154;-61
2022/07/11 02:44:07;;;;;;;1.70;0.80;;;22.30;61.50;;;;;;5030800;28;20517;-61
2022/07/11 02:46:33;;;;;;;2.55;1.10;;;22.30;60.70;;;;;;5030262;28;20693;-61
2022/07/11 02:48:58;;;;;;;1.58;0.82;;;22.30;60.70;;;;;;5031452;28;20178;-60
2022/07/11 02:51:24;;;;;;;2.38;1.00;;;22.30;60.80;;;;;;5031784;28;20048;-61
2022/07/11 02:53:50;;;;;;;1.33;0.70;;;22.30;60.70;;;;;;5010447;28;20152;-61
2022/07/11 02:56:15;;;;;;;1.15;0.80;;;22.30;60.70;;;;;;5011665;28;20060;-61
2022/07/11 02:58:41;;;;;;;1.35;0.90;;;22.30;60.70;;;;;;5031274;28;20072;-61
2022/07/11 03:01:07;;;;;;;1.23;0.80;;;22.30;60.70;;;;;;5028336;28;20049;-61
2022/07/11 03:03:32;;;;;;;2.50;0.80;;;22.30;60.70;;;;;;5031791;28;20193;-62
2022/07/11 03:05:58;;;;;;;1.48;1.00;;;22.30;60.70;;;;;;5031583;28;20041;-60
2022/07/11 03:08:23;;;;;;;1.60;1.00;;;22.30;60.70;;;;;;5010751;28;20152;-62
2022/07/11 03:10:49;;;;;;;1.42;1.00;;;22.30;60.60;;;;;;5029936;28;20041;-61
2022/07/11 03:13:15;;;;;;;1.70;0.80;;;22.30;60.70;;;;;;5029059;28;20056;-61
2022/07/11 03:15:41;;;;;;;1.20;0.95;;;22.30;60.70;;;;;;5029398;28;20047;-60
2022/07/11 03:18:07;;;;;;;1.13;0.60;;;22.30;60.70;;;;;;5030848;28;20049;-61
2022/07/11 03:20:33;;;;;;;0.95;0.90;;;22.30;60.70;;;;;;5031150;28;20717;-61
2022/07/11 03:22:58;;;;;;;1.02;0.93;;;22.30;60.70;;;;;;5028111;28;20029;-61
2022/07/11 03:25:24;;;;;;;2.45;0.80;;;22.30;60.70;;;;;;5009815;28;20563;-61
2022/07/11 03:27:50;;;;;;;0.95;0.85;;;22.30;60.70;;;;;;5030640;28;20107;-61
2022/07/11 03:30:16;;;;;;;1.45;0.90;;;22.30;60.70;;;;;;5029209;28;20049;-61
2022/07/11 03:32:42;;;;;;;1.08;0.63;;;22.30;60.60;;;;;;5028912;28;20067;-61
2022/07/11 03:37:52;;;;;;;1.15;0.70;;;22.30;60.70;;;;;;5027746;28;20052;-60
2022/07/11 03:40:18;;;;;;;2.40;0.80;;;22.30;60.60;;;;;;5031542;28;20033;-61
2022/07/11 03:42:44;;;;;;;1.23;0.70;;;22.30;60.70;;;;;;5008938;28;20690;-61
2022/07/11 03:45:10;;;;;;;0.82;0.73;;;22.30;60.60;;;;;;5029831;28;20095;-62
2022/07/11 03:47:36;;;;;;;1.00;0.70;;;22.30;60.70;;;;;;5029520;28;20053;-61
2022/07/11 03:50:03;;;;;;;1.92;0.80;;;22.30;60.60;;;;;;5028485;28;20065;-61
2022/07/11 03:52:28;;;;;;;1.00;0.70;;;22.30;60.60;;;;;;5008232;28;20099;-61
2022/07/11 03:54:54;;;;;;;1.95;0.77;;;22.30;60.60;;;;;;5029493;28;20049;-61
2022/07/11 03:57:19;;;;;;;3.53;0.88;;;22.30;60.60;;;;;;5009473;28;20067;-60
2022/07/11 03:59:45;;;;;;;2.35;1.25;;;22.30;60.60;;;;;;5010348;28;20052;-62
2022/07/11 04:02:11;;;;;;;1.63;0.90;;;22.30;60.60;;;;;;5029645;28;20065;-62
2022/07/11 04:04:36;;;;;;;1.40;1.08;;;22.30;60.60;;;;;;5027487;28;20072;-62
2022/07/11 04:07:02;;;;;;;3.50;1.17;;;22.30;60.60;;;;;;5027966;28;20049;-61
2022/07/11 04:09:27;;;;;;;0.93;0.80;;;22.30;60.60;;;;;;5030130;28;20063;-61
2022/07/11 04:11:53;;;;;;;1.00;0.80;;;22.30;60.60;;;;;;5030239;28;20038;-62
2022/07/11 04:14:19;;;;;;;2.00;0.90;;;22.30;60.70;;;;;;5030132;28;20033;-62
2022/07/11 04:16:44;;;;;;;0.90;0.80;;;22.30;60.60;;;;;;5028302;28;20126;-62
2022/07/11 04:19:10;;;;;;;0.80;0.80;;;22.30;60.60;;;;;;5029736;28;20037;-63
2022/07/11 04:21:35;;;;;;;0.95;0.90;;;22.30;60.60;;;;;;5028888;28;20330;-61
2022/07/11 04:24:01;;;;;;;1.45;0.80;;;22.30;60.60;;;;;;5010645;28;20033;-63
2022/07/11 04:26:27;;;;;;;0.70;0.70;;;22.30;61.40;;;;;;5029269;28;20131;-62
2022/07/11 04:28:52;;;;;;;1.65;0.70;;;22.30;60.70;;;;;;5029713;28;21706;-64
2022/07/11 04:31:18;;;;;;;1.92;0.85;;;22.30;60.70;;;;;;5029284;28;20060;-65
2022/07/11 04:33:44;;;;;;;2.00;0.95;;;22.30;60.70;;;;;;5025411;28;20048;-62
2022/07/11 04:36:09;;;;;;;0.88;0.88;;;22.30;60.70;;;;;;5009182;28;20493;-61
2022/07/11 04:38:35;;;;;;;1.23;0.90;;;22.30;60.70;;;;;;5028790;28;20695;-61
2022/07/11 04:41:00;;;;;;;1.90;1.05;;;22.20;60.60;;;;;;5029758;28;20043;-63
2022/07/11 04:43:26;;;;;;;1.25;0.95;;;22.30;60.80;;;;;;5027923;28;20025;-62
2022/07/11 04:45:52;;;;;;;1.52;0.85;;;22.20;60.70;;;;;;5026002;28;20033;-63
2022/07/11 04:48:17;;;;;;;2.25;0.68;;;22.30;60.70;;;;;;5025452;28;20053;-62
2022/07/11 04:50:44;;;;;;;1.10;0.98;;;22.30;60.80;;;;;;5026488;28;20056;-62
2022/07/11 04:53:11;;;;;;;1.65;0.80;;;22.30;60.80;;;;;;5026606;28;20052;-63
2022/07/11 04:55:40;;;;;;;1.77;0.90;;;22.30;60.80;;;;;;5010823;28;20053;-63
2022/07/11 04:58:08;;;;;;;2.70;1.13;;;22.30;60.80;;;;;;5027141;28;20069;-61
2022/07/11 05:00:34;;;;;;;0.80;0.80;;;22.20;60.80;;;;;;5030284;28;20053;-60
2022/07/11 05:03:00;;;;;;;0.90;0.80;;;22.20;60.80;;;;;;5025924;28;20095;-61
2022/07/11 05:05:25;;;;;;;2.08;1.00;;;22.20;60.80;;;;;;5010850;28;20440;-62
2022/07/11 05:07:51;;;;;;;1.80;1.00;;;22.20;60.80;;;;;;5023307;28;20041;-61
2022/07/11 05:10:17;;;;;;;1.90;0.80;;;22.20;60.80;;;;;;5025926;28;20457;-61
2022/07/11 05:12:42;;;;;;;1.88;0.88;;;22.20;60.80;;;;;;5025497;28;20043;-60
2022/07/11 05:15:08;;;;;;;1.27;0.90;;;22.20;60.80;;;;;;5027742;28;20108;-63
2022/07/11 05:17:35;;;;;;;2.67;1.00;;;22.20;60.80;;;;;;5028345;28;20045;-61
2022/07/11 05:20:00;;;;;;;0.85;0.77;;;22.20;60.90;;;;;;5028262;28;20385;-62
2022/07/11 05:22:26;;;;;;;1.10;0.88;;;22.20;60.80;;;;;;5026746;28;20030;-62
2022/07/11 05:24:52;;;;;;;1.52;0.68;;;22.20;60.90;;;;;;5028997;28;20041;-61
2022/07/11 05:27:18;;;;;;;1.40;0.70;;;22.20;60.90;;;;;;5024546;28;20041;-60
2022/07/11 05:29:43;;;;;;;0.80;0.80;;;22.20;60.90;;;;;;5028311;28;20191;-62
2022/07/11 05:32:10;;;;;;;3.53;0.80;;;22.20;60.90;;;;;;5033816;28;20045;-61
2022/07/11 05:34:36;;;;;;;2.22;0.80;;;22.20;60.90;;;;;;5012230;28;20037;-62
2022/07/11 05:37:01;;;;;;;0.70;0.70;;;22.20;60.90;;;;;;5031536;28;20673;-61
2022/07/11 05:39:27;;;;;;;0.90;0.70;;;22.20;61.00;;;;;;5013453;28;20063;-62
2022/07/11 05:41:53;;;;;;;0.93;0.80;;;22.20;60.90;;;;;;5030323;28;20788;-62
2022/07/11 05:44:18;;;;;;;0.98;0.80;;;22.20;61.00;;;;;;5031990;28;20144;-63
2022/07/11 05:46:45;;;;;;;1.10;0.80;;;22.20;61.00;;;;;;5028578;28;20419;-61
2022/07/11 05:49:12;;;;;;;1.52;0.90;;;22.20;60.90;;;;;;5028557;28;20044;-61
2022/07/11 05:51:38;;;;;;;2.00;0.98;;;22.30;61.00;;;;;;5030046;28;20082;-63
2022/07/11 05:54:04;;;;;;;2.40;0.68;;;22.30;61.20;;;;;;5008919;28;20471;-62
2022/07/11 05:56:30;;;;;;;3.05;0.85;;;22.30;61.20;;;;;;5032511;28;20379;-61
2022/07/11 05:58:56;;;;;;;0.70;0.60;;;22.30;61.30;;;;;;5029480;28;20396;-62
2022/07/11 06:01:22;;;;;;;0.68;0.60;;;22.30;61.40;;;;;;5030074;28;20052;-60
2022/07/11 06:03:49;;;;;;;3.05;1.02;;;22.30;61.30;;;;;;5030536;28;20046;-60
2022/07/11 06:06:16;;;;;;;2.22;0.70;;;22.30;61.30;;;;;;5013926;28;20036;-61
2022/07/11 06:08:43;;;;;;;3.00;0.70;;;22.30;61.40;;;;;;5032228;28;20099;-62
2022/07/11 06:11:13;;;;;;;2.53;0.60;;;22.30;61.30;;;;;;5012273;28;20126;-62
2022/07/11 06:13:41;;;;;;;1.85;0.60;;;22.30;61.30;;;;;;5029867;28;20532;-65
2022/07/11 06:16:08;;;;;;;4.13;1.00;;;22.30;61.10;;;;;;5033888;28;20485;-62
2022/07/11 06:18:35;;;;;;;1.55;0.80;;;22.40;61.40;;;;;;5033942;28;20057;-62
2022/07/11 06:21:01;;;;;;;1.30;0.77;;;22.30;61.50;;;;;;5029395;28;20504;-61
2022/07/11 06:23:27;;;;;;;1.20;0.80;;;22.30;61.60;;;;;;5029843;28;20045;-62
2022/07/11 06:25:53;;;;;;;2.28;1.10;;;22.30;61.70;;;;;;5031101;28;20048;-62
2022/07/11 06:28:19;;;;;;;2.25;0.60;;;22.40;61.80;;;;;;5028852;28;20120;-62
2022/07/11 06:30:45;;;;;;;1.20;0.68;;;22.40;61.90;;;;;;5028954;28;20145;-63
2022/07/11 06:33:10;;;;;;;1.58;0.60;;;22.40;61.90;;;;;;5013395;28;20032;-62
2022/07/11 06:35:36;;;;;;;3.17;0.80;;;22.40;61.90;;;;;;5030498;28;20028;-63
2022/07/11 06:38:02;;;;;;;3.15;0.85;;;22.40;61.80;;;;;;5028455;28;20037;-62
2022/07/11 06:40:28;;;;;;;0.73;0.60;;;22.40;61.80;;;;;;5030104;28;20384;-61
2022/07/11 06:42:54;;;;;;;6.10;1.02;;;22.40;61.90;;;;;;5027063;28;20115;-63
2022/07/11 06:45:19;;;;;;;4.93;1.05;;;22.40;61.90;;;;;;5028961;28;20064;-64
2022/07/11 06:47:45;;;;;;;3.22;0.88;;;22.40;62.10;;;;;;5029432;28;20899;-62
2022/07/11 06:50:12;;;;;;;3.47;0.80;;;22.40;62.30;;;;;;5026039;28;20053;-62
2022/07/11 06:52:38;;;;;;;2.25;0.60;;;22.40;62.30;;;;;;5009796;28;20060;-61
2022/07/11 06:55:04;;;;;;;1.00;0.63;;;22.40;62.40;;;;;;5027007;28;20040;-62
2022/07/11 06:57:30;;;;;;;5.38;0.80;;;22.40;62.60;;;;;;5025583;28;20041;-62
2022/07/11 06:59:56;;;;;;;2.58;0.70;;;22.40;62.90;;;;;;5011210;28;20935;-64
2022/07/11 07:02:26;;;;;;;1.13;0.40;;;22.40;63.00;;;;;;5030327;28;20033;-61
2022/07/11 07:04:51;;;;;;;1.88;0.60;;;22.40;63.00;;;;;;5008841;28;20124;-63
2022/07/11 07:07:17;;;;;;;2.80;0.65;;;22.40;62.90;;;;;;5012081;28;20041;-64
2022/07/11 07:09:42;;;;;;;1.25;0.60;;;22.40;62.90;;;;;;5026909;28;20068;-63
2022/07/11 07:12:08;;;;;;;1.00;0.55;;;22.40;63.00;;;;;;5025238;28;20041;-63
2022/07/11 07:14:34;;;;;;;1.98;0.52;;;22.40;63.00;;;;;;5013633;28;20972;-61
2022/07/11 07:17:00;;;;;;;1.25;0.50;;;22.40;62.90;;;;;;5029462;28;20037;-64
2022/07/11 07:19:25;;;;;;;1.45;0.30;;;22.40;62.90;;;;;;5013780;28;20768;-62
2022/07/11 07:21:51;;;;;;;2.47;0.50;;;22.40;62.90;;;;;;5030519;28;20045;-63
2022/07/11 07:24:16;;;;;;;4.30;0.80;;;22.40;62.70;;;;;;5026798;28;20045;-61
2022/07/11 07:26:42;;;;;;;0.60;0.50;;;22.40;62.70;;;;;;5027929;28;20037;-60
2022/07/11 07:29:08;;;;;;;0.93;0.55;;;22.40;62.80;;;;;;5028115;28;20580;-60
2022/07/11 07:31:33;;;;;;;0.50;0.50;;;22.40;62.90;;;;;;5029837;28;20041;-61
2022/07/11 07:33:59;;;;;;;1.90;0.40;;;22.40;62.90;;;;;;5027937;28;20041;-61
2022/07/11 07:36:24;;;;;;;0.80;0.40;;;22.40;62.80;;;;;;5027646;28;20483;-60
2022/07/11 07:38:50;;;;;;;2.28;0.60;;;22.40;63.00;;;;;;5006091;28;20053;-62
2022/07/11 07:41:16;;;;;;;2.88;0.57;;;22.40;63.00;;;;;;5027717;28;20115;-61
2022/07/11 07:43:42;;;;;;;2.95;0.40;;;22.40;63.30;;;;;;5025512;28;20444;-62
2022/07/11 07:46:11;;;;;;;1.40;0.55;;;22.40;63.40;;;;;;5027583;28;20365;-61
2022/07/11 07:48:40;;;;;;;1.13;0.50;;;22.40;63.60;;;;;;5027844;28;20212;-62
2022/07/11 07:51:06;;;;;;;2.05;0.50;;;22.50;63.80;;;;;;5004086;28;20071;-62
2022/07/11 07:53:32;;;;;;;0.40;0.40;;;22.40;64.20;;;;;;5008778;28;20043;-60
2022/07/11 07:55:58;;;;;;;2.67;0.40;;;22.50;64.60;;;;;;5026355;28;20048;-61
2022/07/11 07:58:23;;;;;;;5.32;1.02;;;22.50;64.70;;;;;;5025015;28;20041;-60
2022/07/11 08:03:33;;;;;;;0.70;0.60;;;22.50;64.70;;;;;;5025255;28;20150;-62
2022/07/11 08:05:59;;;;;;;2.67;0.40;;;22.50;64.80;;;;;;5026984;28;20034;-61
2022/07/11 08:08:24;;;;;;;3.58;0.50;;;22.50;64.80;;;;;;5023151;28;20068;-61
2022/07/11 08:10:51;;;;;;;1.13;0.30;;;22.50;64.80;;;;;;5026424;28;20103;-62
2022/07/11 08:13:18;;;;;;;2.67;0.35;;;22.50;64.90;;;;;;5024523;28;20043;-61
2022/07/11 08:15:43;;;;;;;2.08;0.60;;;22.50;64.70;;;;;;5026013;28;20163;-61
2022/07/11 08:18:09;;;;;;;1.35;0.43;;;22.50;64.70;;;;;;5023779;28;20033;-62
2022/07/11 08:20:35;;;;;;;1.27;0.50;;;22.50;64.70;;;;;;5003755;28;20051;-61
2022/07/11 08:23:03;;;;;;;2.08;0.70;;;22.50;64.70;;;;;;5006168;28;20040;-61
2022/07/11 08:25:32;;;;;;;2.17;0.40;;;22.50;64.80;;;;;;5023759;28;20513;-60
2022/07/11 08:27:58;;;;;;;1.20;0.30;;;22.50;65.00;;;;;;5028075;28;20045;-61
2022/07/11 08:30:24;;;;;;;1.73;0.75;;;22.50;65.10;;;;;;5026259;28;20045;-62
2022/07/11 08:32:49;;;;;;;2.83;0.47;;;22.50;65.10;;;;;;5025982;28;20041;-61
2022/07/11 08:35:15;;;;;;;1.13;0.60;;;22.50;65.20;;;;;;5025436;28;20083;-63
2022/07/11 08:37:41;;;;;;;2.17;0.52;;;22.50;65.20;;;;;;5024796;28;20106;-61
2022/07/11 08:40:08;;;;;;;2.58;0.30;;;22.50;65.90;;;;;;5028062;28;20800;-61
2022/07/11 08:42:40;;;;;;;5.00;0.55;;;22.50;65.20;;;;;;5028949;28;20029;-61
2022/07/11 08:45:06;;;;;;;0.95;0.30;;;22.50;65.20;;;;;;5024414;28;20041;-61
2022/07/11 08:47:33;;;;;;;1.25;0.40;;;22.50;65.10;;;;;;5008349;28;20361;-62
2022/07/11 08:50:00;;;;;;;0.73;0.30;;;22.50;65.20;;;;;;5026009;28;20107;-61
2022/07/11 08:52:27;;;;;;;0.40;0.30;;;22.60;65.40;;;;;;5007101;28;20045;-63
2022/07/11 08:54:53;;;;;;;3.47;0.40;;;22.60;65.40;;;;;;5026745;28;20033;-61
2022/07/11 08:57:19;;;;;;;5.97;0.70;;;22.50;65.30;;;;;;5027945;28;20648;-61
2022/07/11 08:59:47;;;;;;;3.75;0.70;;;22.50;65.40;;;;;;5027657;28;20117;-61
2022/07/11 09:02:13;;;;;;;2.63;0.43;;;22.50;65.40;;;;;;5028499;28;20112;-61
2022/07/11 09:04:40;;;;;;;2.67;0.30;;;22.50;65.40;;;;;;4996462;28;20037;-61
2022/07/11 09:07:06;;;;;;;0.95;0.40;;;22.50;65.40;;;;;;5008286;28;20048;-61
2022/07/11 09:09:31;;;;;;;1.55;0.50;;;22.50;65.30;;;;;;5025837;28;20044;-61
2022/07/11 09:11:58;;;;;;;1.20;0.40;;;22.50;65.30;;;;;;5024787;28;20049;-61
2022/07/11 09:14:26;;;;;;;1.08;0.47;;;22.50;65.30;;;;;;5007163;28;20041;-62
2022/07/11 09:17:12;;;;;;;1.15;0.50;;;22.50;65.20;;;;;;5025482;28;20674;-61
2022/07/11 09:19:41;;;;;;;0.28;0.20;;;22.50;65.10;;;;;;5026117;28;20065;-61
2022/07/11 09:27:56;;;;;;;1.33;0.30;;;22.50;64.90;;;;;;5027492;28;20107;-61
2022/07/11 09:30:31;;;;;;;1.77;0.47;;;22.50;64.90;;;;;;5027258;28;20038;-62
2022/07/11 09:33:02;;;;;;;0.77;0.30;;;22.50;64.90;;;;;;5024487;28;20045;-61
2022/07/11 09:35:31;;;;;;;2.17;0.40;;;22.50;64.80;;;;;;5026350;28;20044;-64
2022/07/11 09:37:57;;;;;;;0.30;0.30;;;22.50;64.70;;;;;;5027368;28;20074;-61
2022/07/11 09:40:25;;;;;;;0.68;0.30;;;22.50;64.70;;;;;;5027115;28;20441;-64
2022/07/11 09:42:56;;;;;;;0.82;0.40;;;22.50;64.40;;;;;;5029058;28;20144;-60
2022/07/11 09:45:25;;;;;;;2.25;0.30;;;22.50;64.40;;;;;;5009392;28;20033;-59
2022/07/11 09:47:55;;;;;;;1.35;0.32;;;22.50;64.50;;;;;;5010240;28;20132;-61
2022/07/11 09:50:26;;;;;;;0.25;0.20;;;22.50;64.50;;;;;;5011384;28;20437;-61
2022/07/11 09:52:59;;;;;;;0.22;0.20;;;22.50;64.50;;;;;;5028841;28;20041;-63
2022/07/11 09:55:28;;;;;;;1.05;0.50;;;22.50;64.50;;;;;;5027475;28;20049;-61
2022/07/11 09:57:53;;;;;;;0.85;0.40;;;22.50;64.50;;;;;;5029037;28;20054;-61
2022/07/11 10:00:19;;;;;;;0.95;0.30;;;22.50;64.40;;;;;;5027890;28;20495;-61
2022/07/11 10:02:45;;;;;;;0.55;0.30;;;22.50;64.30;;;;;;5009349;28;20045;-62
2022/07/11 10:05:11;;;;;;;0.68;0.50;;;22.50;64.20;;;;;;5027868;28;20892;-61
2022/07/11 10:07:37;;;;;;;0.63;0.40;;;22.50;64.20;;;;;;5022085;28;20048;-64
2022/07/11 10:10:05;;;;;;;3.00;0.40;;;22.50;64.10;;;;;;5026237;28;20564;-60
2022/07/11 10:12:31;;;;;;;1.13;0.40;;;22.50;64.20;;;;;;5023703;28;20088;-62
2022/07/11 10:14:59;;;;;;;0.40;0.30;;;22.50;64.20;;;;;;5025137;28;20072;-61
2022/07/11 10:17:39;;;;;;;1.35;0.32;;;22.50;64.20;;;;;;5001984;28;20653;-61
2022/07/11 10:20:20;;;;;;;1.02;0.45;;;22.50;64.10;;;;;;5032205;28;20417;-61
2022/07/11 10:23:16;;;;;;;0.82;0.30;;;22.50;64.10;;;;;;5000440;28;20381;-61
2022/07/11 10:26:11;;;;;;;1.27;0.50;;;22.50;64.10;;;;;;5020895;28;20461;-63
2022/07/11 10:28:44;;;;;;;1.15;0.43;;;22.50;64.10;;;;;;5031204;28;20088;-62
2022/07/11 10:31:23;;;;;;;1.35;0.40;;;22.50;64.10;;;;;;5032940;28;20525;-61
2022/07/11 10:34:10;;;;;;;0.38;0.30;;;22.50;64.10;;;;;;5033614;28;20532;-62
2022/07/11 10:36:44;;;;;;;1.50;0.30;;;22.50;64.10;;;;;;5011997;28;20059;-62
2022/07/11 10:39:17;;;;;;;0.63;0.30;;;22.50;64.10;;;;;;5012187;28;20034;-61
2022/07/11 10:41:44;;;;;;;0.20;0.20;;;22.50;64.00;;;;;;5030410;28;20073;-61
2022/07/11 10:44:10;;;;;;;0.93;0.20;;;22.50;64.00;;;;;;5028982;28;20044;-62
2022/07/11 10:46:35;;;;;;;0.90;0.30;;;22.50;64.20;;;;;;5028825;28;20497;-61
2022/07/11 10:49:06;;;;;;;1.13;0.25;;;22.50;64.20;;;;;;5011017;28;20053;-61
2022/07/11 10:51:59;;;;;;;0.65;0.28;;;22.50;63.70;;;;;;5030993;28;20052;-61
2022/07/11 10:55:07;;;;;;;0.20;0.20;;;22.50;63.80;;;;;;5028900;28;20485;-61
2022/07/11 10:57:59;;;;;;;1.65;0.40;;;22.50;63.70;;;;;;5029163;28;20041;-60
2022/07/11 11:00:25;;;;;;;0.65;0.30;;;22.50;63.90;;;;;;5026089;28;20882;-61
2022/07/11 11:03:10;;;;;;;1.40;0.28;;;22.50;64.00;;;;;;5031857;28;20045;-60
2022/07/11 11:05:48;;;;;;;1.23;0.38;;;22.50;64.00;;;;;;5031421;28;20046;-63
2022/07/11 11:08:32;;;;;;;0.63;0.30;;;22.50;64.00;;;;;;5012635;28;20048;-61
2022/07/11 11:10:59;;;;;;;3.00;0.35;;;22.50;64.00;;;;;;5010252;28;20055;-61
2022/07/11 11:13:25;;;;;;;3.55;0.43;;;22.50;64.10;;;;;;5011050;28;20037;-60
2022/07/11 11:15:52;;;;;;;1.17;0.30;;;22.50;64.10;;;;;;5027858;28;21020;-61
2022/07/11 11:18:24;;;;;;;3.05;0.50;;;22.50;64.10;;;;;;5030440;28;20123;-63
2022/07/11 11:21:07;;;;;;;2.65;0.43;;;22.60;64.20;;;;;;5028697;28;20056;-62
2022/07/11 11:23:37;;;;;;;1.77;0.30;;;22.60;64.30;;;;;;5028448;28;20041;-61
2022/07/11 11:26:12;;;;;;;3.47;0.60;;;22.50;64.20;;;;;;5027979;28;20034;-61
2022/07/11 11:28:57;;;;;;;1.92;0.50;;;22.60;64.30;;;;;;5028534;28;20064;-63
2022/07/11 11:31:24;;;;;;;1.48;0.40;;;22.60;64.40;;;;;;5028537;28;20038;-62
2022/07/11 11:33:50;;;;;;;2.97;0.45;;;22.60;64.50;;;;;;5027152;28;20065;-61
2022/07/11 11:36:18;;;;;;;2.05;0.50;;;22.60;64.50;;;;;;5018229;28;20504;-61
2022/07/11 11:38:46;;;;;;;5.15;0.32;;;22.60;64.50;;;;;;5026544;28;20525;-59
2022/07/11 11:41:14;;;;;;;1.48;0.60;;;22.60;64.40;;;;;;5029602;28;20037;-60
2022/07/11 11:43:47;;;;;;;1.05;0.30;;;22.60;64.60;;;;;;5029000;28;20041;-61
2022/07/11 11:46:13;;;;;;;5.03;0.52;;;22.60;64.50;;;;;;5028809;28;20134;-62
2022/07/11 11:48:45;;;;;;;0.88;0.30;;;22.60;64.50;;;;;;5026861;28;20085;-61
2022/07/11 11:51:15;;;;;;;1.67;0.30;;;22.60;64.50;;;;;;5029898;28;20045;-62
2022/07/11 11:53:46;;;;;;;1.33;0.30;;;22.60;64.50;;;;;;5028400;28;20044;-63
2022/07/11 11:56:16;;;;;;;1.55;0.30;;;22.60;64.60;;;;;;5011285;28;20049;-62
2022/07/11 11:58:43;;;;;;;2.38;0.60;;;22.60;64.50;;;;;;5032024;28;20049;-61
2022/07/11 12:01:13;;;;;;;1.08;0.40;;;22.60;64.50;;;;;;5026104;28;20527;-61
2022/07/11 12:03:59;;;;;;;1.55;0.20;;;22.60;64.50;;;;;;5028312;28;20048;-60
2022/07/11 12:06:27;;;;;;;2.55;0.30;;;22.60;64.40;;;;;;5023731;28;20068;-64
2022/07/11 12:09:09;;;;;;;3.97;0.30;;;22.60;64.40;;;;;;5009038;28;20083;-60
2022/07/11 12:11:36;;;;;;;0.30;0.20;;;22.60;64.40;;;;;;5008504;28;20048;-61
2022/07/11 12:14:05;;;;;;;1.48;0.52;;;22.60;64.40;;;;;;5028249;28;20180;-60
2022/07/11 12:16:46;;;;;;;1.58;0.38;;;22.60;64.40;;;;;;4993116;28;20548;-60
2022/07/11 12:19:18;;;;;;;2.17;0.20;;;22.60;64.30;;;;;;5029441;28;21023;-61
2022/07/11 12:21:52;;;;;;;0.52;0.30;;;22.60;64.40;;;;;;5028824;28;20350;-62
2022/07/11 12:24:29;;;;;;;1.70;0.40;;;22.60;64.40;;;;;;5028354;28;20493;-60
2022/07/11 12:26:55;;;;;;;0.65;0.30;;;22.60;64.40;;;;;;5027906;28;20057;-60
2022/07/11 12:29:22;;;;;;;1.60;0.30;;;22.60;64.40;;;;;;5027839;28;20043;-60
2022/07/11 12:32:02;;;;;;;1.67;0.50;;;22.60;64.50;;;;;;5025051;28;20156;-61
2022/07/11 12:34:33;;;;;;;1.30;0.50;;;22.60;64.60;;;;;;5023969;28;20045;-61
2022/07/11 12:37:06;;;;;;;1.23;0.40;;;22.60;64.80;;;;;;4993889;28;20043;-62
2022/07/11 12:39:33;;;;;;;2.00;0.32;;;22.60;64.90;;;;;;4996932;28;20045;-61
2022/07/11 12:42:00;;;;;;;4.05;0.50;;;22.60;65.10;;;;;;5024408;28;20434;-62
2022/07/11 12:47:14;;;;;;;4.70;0.65;;;22.60;65.40;;;;;;5021958;28;20128;-61
2022/07/11 12:49:44;;;;;;;1.95;0.30;;;22.60;65.40;;;;;;5004961;28;20099;-60
2022/07/11 12:52:10;;;;;;;2.08;0.30;;;22.60;65.40;;;;;;5025635;28;20056;-61
2022/07/11 12:54:36;;;;;;;1.58;0.43;;;22.60;65.40;;;;;;5028459;28;20030;-60
2022/07/11 12:57:03;;;;;;;0.40;0.30;;;22.60;65.40;;;;;;5024974;28;20374;-59
2022/07/11 12:59:32;;;;;;;3.00;0.50;;;22.60;65.40;;;;;;5026788;28;20041;-63
2022/07/11 13:02:03;;;;;;;2.53;0.68;;;22.60;65.40;;;;;;5027754;28;20049;-61
2022/07/11 13:04:33;;;;;;;1.58;0.43;;;22.60;65.30;;;;;;5022614;28;20033;-62